sensor_id;sensor_type;location;lat;lon;timestamp;P1;durP1;ratioP1;P2;durP2;ratioP2
3795;SDS011;1913;50.660;7.834;2023-05-07T00:01:56;2.40;;;1.67;;
3795;SDS011;1913;50.660;7.834;2023-05-07T00:04:22;2.67;;;1.60;;
3795;SDS011;1913;50.660;7.834;2023-05-07T00:06:47;2.83;;;1.73;;
3795;SDS011;1913;50.660;7.834;2023-05-07T00:09:13;1.73;;;1.50;;
3795;SDS011;1913;50.660;7.834;2023-05-07T00:11:40;1.67;;;1.27;;
3795;SDS011;1913;50.660;7.834;2023-05-07T00:14:05;2.43;;;1.90;;
3795;SDS011;1913;50.660;7.834;2023-05-07T00:16:31;2.47;;;1.77;;
3795;SDS011;1913;50.660;7.834;2023-05-07T00:18:57;3.40;;;1.77;;
3795;SDS011;1913;50.660;7.834;2023-05-07T00:21:22;3.50;;;2.20;;
3795;SDS011;1913;50.660;7.834;2023-05-07T00:23:48;2.43;;;1.80;;
3795;SDS011;1913;50.660;7.834;2023-05-07T00:26:13;3.07;;;1.57;;
3795;SDS011;1913;50.660;7.834;2023-05-07T00:28:38;3.50;;;1.83;;
3795;SDS011;1913;50.660;7.834;2023-05-07T00:31:04;1.90;;;1.77;;
3795;SDS011;1913;50.660;7.834;2023-05-07T00:33:30;4.43;;;1.77;;
3795;SDS011;1913;50.660;7.834;2023-05-07T00:35:55;3.50;;;1.93;;
3795;SDS011;1913;50.660;7.834;2023-05-07T00:38:20;2.17;;;1.70;;
3795;SDS011;1913;50.660;7.834;2023-05-07T00:40:46;1.50;;;1.40;;
3795;SDS011;1913;50.660;7.834;2023-05-07T00:43:11;2.23;;;1.80;;
3795;SDS011;1913;50.660;7.834;2023-05-07T00:45:37;3.53;;;1.70;;
3795;SDS011;1913;50.660;7.834;2023-05-07T00:48:03;2.83;;;1.60;;
3795;SDS011;1913;50.660;7.834;2023-05-07T00:50:29;2.30;;;1.67;;
3795;SDS011;1913;50.660;7.834;2023-05-07T00:52:55;2.33;;;1.60;;
3795;SDS011;1913;50.660;7.834;2023-05-07T00:55:21;1.60;;;1.50;;
3795;SDS011;1913;50.660;7.834;2023-05-07T00:57:48;3.40;;;1.50;;
3795;SDS011;1913;50.660;7.834;2023-05-07T01:00:15;2.90;;;1.77;;
3795;SDS011;1913;50.660;7.834;2023-05-07T01:02:40;2.07;;;1.90;;
3795;SDS011;1913;50.660;7.834;2023-05-07T01:05:07;4.30;;;1.77;;
3795;SDS011;1913;50.660;7.834;2023-05-07T01:07:36;3.53;;;1.80;;
3795;SDS011;1913;50.660;7.834;2023-05-07T01:10:05;2.53;;;1.87;;
3795;SDS011;1913;50.660;7.834;2023-05-07T01:12:32;3.07;;;1.90;;
3795;SDS011;1913;50.660;7.834;2023-05-07T01:15:00;2.53;;;1.87;;
3795;SDS011;1913;50.660;7.834;2023-05-07T01:17:26;1.97;;;1.77;;
3795;SDS011;1913;50.660;7.834;2023-05-07T01:19:52;2.97;;;1.90;;
3795;SDS011;1913;50.660;7.834;2023-05-07T01:22:51;1.70;;;1.60;;
3795;SDS011;1913;50.660;7.834;2023-05-07T01:25:10;5.30;;;1.80;;
3795;SDS011;1913;50.660;7.834;2023-05-07T01:27:36;2.70;;;1.80;;
3795;SDS011;1913;50.660;7.834;2023-05-07T01:30:03;1.80;;;1.70;;
3795;SDS011;1913;50.660;7.834;2023-05-07T01:32:43;1.73;;;1.63;;
3795;SDS011;1913;50.660;7.834;2023-05-07T01:35:14;2.47;;;1.90;;
3795;SDS011;1913;50.660;7.834;2023-05-07T01:37:43;2.50;;;2.20;;
3795;SDS011;1913;50.660;7.834;2023-05-07T01:40:10;2.80;;;1.90;;
3795;SDS011;1913;50.660;7.834;2023-05-07T01:42:39;2.70;;;2.00;;
3795;SDS011;1913;50.660;7.834;2023-05-07T01:45:06;3.90;;;2.20;;
3795;SDS011;1913;50.660;7.834;2023-05-07T01:47:32;5.97;;;2.30;;
3795;SDS011;1913;50.660;7.834;2023-05-07T01:49:58;2.73;;;1.90;;
3795;SDS011;1913;50.660;7.834;2023-05-07T01:52:24;3.67;;;2.13;;
3795;SDS011;1913;50.660;7.834;2023-05-07T01:54:50;2.87;;;2.00;;
3795;SDS011;1913;50.660;7.834;2023-05-07T01:57:15;2.67;;;2.37;;
3795;SDS011;1913;50.660;7.834;2023-05-07T01:59:40;2.90;;;2.20;;
3795;SDS011;1913;50.660;7.834;2023-05-07T02:02:06;2.40;;;2.03;;
3795;SDS011;1913;50.660;7.834;2023-05-07T02:04:31;3.47;;;2.40;;
3795;SDS011;1913;50.660;7.834;2023-05-07T02:06:57;3.10;;;2.07;;
3795;SDS011;1913;50.660;7.834;2023-05-07T02:09:22;4.10;;;2.80;;
3795;SDS011;1913;50.660;7.834;2023-05-07T02:11:48;4.27;;;2.77;;
3795;SDS011;1913;50.660;7.834;2023-05-07T02:14:14;2.67;;;2.43;;
3795;SDS011;1913;50.660;7.834;2023-05-07T02:16:40;5.07;;;2.50;;
3795;SDS011;1913;50.660;7.834;2023-05-07T02:19:05;3.07;;;2.37;;
3795;SDS011;1913;50.660;7.834;2023-05-07T02:21:31;3.90;;;2.60;;
3795;SDS011;1913;50.660;7.834;2023-05-07T02:23:56;4.30;;;2.40;;
3795;SDS011;1913;50.660;7.834;2023-05-07T02:26:22;3.80;;;2.43;;
3795;SDS011;1913;50.660;7.834;2023-05-07T02:28:47;3.30;;;2.17;;
3795;SDS011;1913;50.660;7.834;2023-05-07T02:31:12;3.87;;;2.47;;
3795;SDS011;1913;50.660;7.834;2023-05-07T02:33:38;3.53;;;2.63;;
3795;SDS011;1913;50.660;7.834;2023-05-07T02:36:07;4.20;;;2.07;;
3795;SDS011;1913;50.660;7.834;2023-05-07T02:38:34;4.73;;;2.40;;
3795;SDS011;1913;50.660;7.834;2023-05-07T02:40:59;3.40;;;2.60;;
3795;SDS011;1913;50.660;7.834;2023-05-07T02:43:25;5.13;;;2.80;;
3795;SDS011;1913;50.660;7.834;2023-05-07T02:45:59;3.37;;;2.30;;
3795;SDS011;1913;50.660;7.834;2023-05-07T02:48:29;7.03;;;2.43;;
3795;SDS011;1913;50.660;7.834;2023-05-07T02:50:54;3.60;;;2.90;;
3795;SDS011;1913;50.660;7.834;2023-05-07T02:53:20;5.63;;;2.50;;
3795;SDS011;1913;50.660;7.834;2023-05-07T02:55:45;7.03;;;2.70;;
3795;SDS011;1913;50.660;7.834;2023-05-07T02:58:10;3.67;;;2.37;;
3795;SDS011;1913;50.660;7.834;2023-05-07T03:00:36;3.03;;;2.73;;
3795;SDS011;1913;50.660;7.834;2023-05-07T03:03:02;4.93;;;3.37;;
3795;SDS011;1913;50.660;7.834;2023-05-07T03:05:27;6.30;;;2.70;;
3795;SDS011;1913;50.660;7.834;2023-05-07T03:07:54;5.00;;;2.37;;
3795;SDS011;1913;50.660;7.834;2023-05-07T03:10:20;4.00;;;2.73;;
3795;SDS011;1913;50.660;7.834;2023-05-07T03:12:45;3.70;;;2.50;;
3795;SDS011;1913;50.660;7.834;2023-05-07T03:15:11;4.10;;;2.83;;
3795;SDS011;1913;50.660;7.834;2023-05-07T03:17:39;3.43;;;2.77;;
3795;SDS011;1913;50.660;7.834;2023-05-07T03:20:05;3.40;;;2.60;;
3795;SDS011;1913;50.660;7.834;2023-05-07T03:22:30;7.80;;;3.03;;
3795;SDS011;1913;50.660;7.834;2023-05-07T03:24:56;4.30;;;3.13;;
3795;SDS011;1913;50.660;7.834;2023-05-07T03:27:21;3.70;;;2.80;;
3795;SDS011;1913;50.660;7.834;2023-05-07T03:29:47;4.00;;;2.70;;
3795;SDS011;1913;50.660;7.834;2023-05-07T03:32:12;5.00;;;2.70;;
3795;SDS011;1913;50.660;7.834;2023-05-07T03:34:38;3.23;;;2.93;;
3795;SDS011;1913;50.660;7.834;2023-05-07T03:37:03;3.87;;;2.53;;
3795;SDS011;1913;50.660;7.834;2023-05-07T03:39:28;4.20;;;2.43;;
3795;SDS011;1913;50.660;7.834;2023-05-07T03:41:54;2.53;;;2.33;;
3795;SDS011;1913;50.660;7.834;2023-05-07T03:44:19;2.67;;;2.23;;
3795;SDS011;1913;50.660;7.834;2023-05-07T03:46:45;3.13;;;2.23;;
3795;SDS011;1913;50.660;7.834;2023-05-07T03:49:10;2.83;;;2.23;;
3795;SDS011;1913;50.660;7.834;2023-05-07T03:51:35;4.83;;;2.50;;
3795;SDS011;1913;50.660;7.834;2023-05-07T03:54:01;4.43;;;2.60;;
3795;SDS011;1913;50.660;7.834;2023-05-07T03:56:26;5.93;;;2.63;;
3795;SDS011;1913;50.660;7.834;2023-05-07T03:58:53;2.50;;;2.20;;
3795;SDS011;1913;50.660;7.834;2023-05-07T04:01:18;4.53;;;2.50;;
3795;SDS011;1913;50.660;7.834;2023-05-07T04:03:44;2.93;;;2.10;;
3795;SDS011;1913;50.660;7.834;2023-05-07T04:06:09;4.83;;;2.57;;
3795;SDS011;1913;50.660;7.834;2023-05-07T04:08:35;5.63;;;2.60;;
3795;SDS011;1913;50.660;7.834;2023-05-07T04:11:01;2.93;;;2.10;;
3795;SDS011;1913;50.660;7.834;2023-05-07T04:13:26;4.20;;;2.40;;
3795;SDS011;1913;50.660;7.834;2023-05-07T04:15:52;3.17;;;2.37;;
3795;SDS011;1913;50.660;7.834;2023-05-07T04:18:18;3.20;;;2.37;;
3795;SDS011;1913;50.660;7.834;2023-05-07T04:20:44;5.97;;;2.43;;
3795;SDS011;1913;50.660;7.834;2023-05-07T04:23:09;2.90;;;2.23;;
3795;SDS011;1913;50.660;7.834;2023-05-07T04:25:35;4.00;;;2.40;;
3795;SDS011;1913;50.660;7.834;2023-05-07T04:28:01;3.67;;;2.20;;
3795;SDS011;1913;50.660;7.834;2023-05-07T04:30:26;5.40;;;2.20;;
3795;SDS011;1913;50.660;7.834;2023-05-07T04:32:52;3.70;;;2.60;;
3795;SDS011;1913;50.660;7.834;2023-05-07T04:35:18;3.50;;;2.60;;
3795;SDS011;1913;50.660;7.834;2023-05-07T04:37:44;7.10;;;2.63;;
3795;SDS011;1913;50.660;7.834;2023-05-07T04:40:09;2.30;;;2.10;;
3795;SDS011;1913;50.660;7.834;2023-05-07T04:42:35;3.73;;;2.60;;
3795;SDS011;1913;50.660;7.834;2023-05-07T04:45:01;2.53;;;2.33;;
3795;SDS011;1913;50.660;7.834;2023-05-07T04:47:27;3.27;;;2.50;;
3795;SDS011;1913;50.660;7.834;2023-05-07T04:49:53;6.00;;;2.43;;
3795;SDS011;1913;50.660;7.834;2023-05-07T04:52:18;5.60;;;2.20;;
3795;SDS011;1913;50.660;7.834;2023-05-07T04:54:44;3.27;;;2.23;;
3795;SDS011;1913;50.660;7.834;2023-05-07T04:57:09;5.00;;;2.10;;
3795;SDS011;1913;50.660;7.834;2023-05-07T04:59:34;4.57;;;2.67;;
3795;SDS011;1913;50.660;7.834;2023-05-07T05:02:00;3.50;;;2.80;;
3795;SDS011;1913;50.660;7.834;2023-05-07T05:04:26;7.40;;;3.20;;
3795;SDS011;1913;50.660;7.834;2023-05-07T05:06:52;6.57;;;2.20;;
3795;SDS011;1913;50.660;7.834;2023-05-07T05:09:17;4.73;;;2.13;;
3795;SDS011;1913;50.660;7.834;2023-05-07T05:11:42;3.20;;;2.50;;
3795;SDS011;1913;50.660;7.834;2023-05-07T05:14:08;3.37;;;2.23;;
3795;SDS011;1913;50.660;7.834;2023-05-07T05:16:34;3.53;;;2.20;;
3795;SDS011;1913;50.660;7.834;2023-05-07T05:18:59;5.20;;;2.33;;
3795;SDS011;1913;50.660;7.834;2023-05-07T05:21:24;2.87;;;2.20;;
3795;SDS011;1913;50.660;7.834;2023-05-07T05:23:50;3.90;;;2.10;;
3795;SDS011;1913;50.660;7.834;2023-05-07T05:26:15;4.17;;;2.73;;
3795;SDS011;1913;50.660;7.834;2023-05-07T05:28:41;5.43;;;2.53;;
3795;SDS011;1913;50.660;7.834;2023-05-07T05:31:06;2.03;;;1.80;;
3795;SDS011;1913;50.660;7.834;2023-05-07T05:33:31;3.70;;;2.23;;
3795;SDS011;1913;50.660;7.834;2023-05-07T05:35:57;2.53;;;2.20;;
3795;SDS011;1913;50.660;7.834;2023-05-07T05:38:22;3.00;;;2.27;;
3795;SDS011;1913;50.660;7.834;2023-05-07T05:40:47;4.90;;;2.30;;
3795;SDS011;1913;50.660;7.834;2023-05-07T05:43:13;4.63;;;2.50;;
3795;SDS011;1913;50.660;7.834;2023-05-07T05:45:39;3.00;;;2.10;;
3795;SDS011;1913;50.660;7.834;2023-05-07T05:48:05;3.37;;;2.13;;
3795;SDS011;1913;50.660;7.834;2023-05-07T05:50:32;2.20;;;2.00;;
3795;SDS011;1913;50.660;7.834;2023-05-07T05:52:58;2.57;;;2.00;;
3795;SDS011;1913;50.660;7.834;2023-05-07T05:55:23;3.57;;;2.03;;
3795;SDS011;1913;50.660;7.834;2023-05-07T05:57:49;5.90;;;2.40;;
3795;SDS011;1913;50.660;7.834;2023-05-07T06:00:15;2.50;;;2.30;;
3795;SDS011;1913;50.660;7.834;2023-05-07T06:02:41;3.40;;;1.90;;
3795;SDS011;1913;50.660;7.834;2023-05-07T06:05:07;2.60;;;2.23;;
3795;SDS011;1913;50.660;7.834;2023-05-07T06:07:33;3.87;;;2.40;;
3795;SDS011;1913;50.660;7.834;2023-05-07T06:10:00;3.00;;;2.70;;
3795;SDS011;1913;50.660;7.834;2023-05-07T06:12:26;4.67;;;2.80;;
3795;SDS011;1913;50.660;7.834;2023-05-07T06:14:51;2.83;;;2.63;;
3795;SDS011;1913;50.660;7.834;2023-05-07T06:17:17;4.70;;;3.00;;
3795;SDS011;1913;50.660;7.834;2023-05-07T06:19:43;5.83;;;2.70;;
3795;SDS011;1913;50.660;7.834;2023-05-07T06:22:08;4.70;;;2.80;;
3795;SDS011;1913;50.660;7.834;2023-05-07T06:24:34;5.13;;;2.70;;
3795;SDS011;1913;50.660;7.834;2023-05-07T06:27:00;4.93;;;2.60;;
3795;SDS011;1913;50.660;7.834;2023-05-07T06:29:25;3.60;;;2.90;;
3795;SDS011;1913;50.660;7.834;2023-05-07T06:31:54;3.43;;;2.80;;
3795;SDS011;1913;50.660;7.834;2023-05-07T06:34:19;5.50;;;2.57;;
3795;SDS011;1913;50.660;7.834;2023-05-07T06:36:44;3.13;;;2.50;;
3795;SDS011;1913;50.660;7.834;2023-05-07T06:39:10;3.70;;;2.70;;
3795;SDS011;1913;50.660;7.834;2023-05-07T06:41:35;4.37;;;2.80;;
3795;SDS011;1913;50.660;7.834;2023-05-07T06:44:04;4.33;;;3.03;;
3795;SDS011;1913;50.660;7.834;2023-05-07T06:46:30;3.50;;;3.20;;
3795;SDS011;1913;50.660;7.834;2023-05-07T06:48:55;5.37;;;3.40;;
3795;SDS011;1913;50.660;7.834;2023-05-07T06:51:21;5.60;;;3.57;;
3795;SDS011;1913;50.660;7.834;2023-05-07T06:53:52;5.80;;;4.27;;
3795;SDS011;1913;50.660;7.834;2023-05-07T06:56:18;4.77;;;2.80;;
3795;SDS011;1913;50.660;7.834;2023-05-07T06:58:43;3.10;;;2.90;;
3795;SDS011;1913;50.660;7.834;2023-05-07T07:01:09;3.00;;;2.43;;
3795;SDS011;1913;50.660;7.834;2023-05-07T07:03:35;4.33;;;2.60;;
3795;SDS011;1913;50.660;7.834;2023-05-07T07:06:00;6.13;;;2.83;;
3795;SDS011;1913;50.660;7.834;2023-05-07T07:08:27;2.93;;;2.73;;
3795;SDS011;1913;50.660;7.834;2023-05-07T07:10:52;3.30;;;3.00;;
3795;SDS011;1913;50.660;7.834;2023-05-07T07:13:17;3.47;;;2.70;;
3795;SDS011;1913;50.660;7.834;2023-05-07T07:15:43;5.60;;;3.10;;
3795;SDS011;1913;50.660;7.834;2023-05-07T07:18:08;4.23;;;3.23;;
3795;SDS011;1913;50.660;7.834;2023-05-07T07:20:33;5.03;;;2.93;;
3795;SDS011;1913;50.660;7.834;2023-05-07T07:22:59;3.80;;;3.13;;
3795;SDS011;1913;50.660;7.834;2023-05-07T07:25:24;4.67;;;2.90;;
3795;SDS011;1913;50.660;7.834;2023-05-07T07:27:50;4.10;;;3.17;;
3795;SDS011;1913;50.660;7.834;2023-05-07T07:30:15;3.87;;;3.50;;
3795;SDS011;1913;50.660;7.834;2023-05-07T07:32:41;3.17;;;2.60;;
3795;SDS011;1913;50.660;7.834;2023-05-07T07:35:07;4.27;;;2.90;;
3795;SDS011;1913;50.660;7.834;2023-05-07T07:37:32;3.03;;;2.73;;
3795;SDS011;1913;50.660;7.834;2023-05-07T07:39:58;4.87;;;3.20;;
3795;SDS011;1913;50.660;7.834;2023-05-07T07:42:23;4.70;;;3.10;;
3795;SDS011;1913;50.660;7.834;2023-05-07T07:44:49;4.70;;;2.53;;
3795;SDS011;1913;50.660;7.834;2023-05-07T07:47:15;4.80;;;2.73;;
3795;SDS011;1913;50.660;7.834;2023-05-07T07:49:41;3.00;;;2.53;;
3795;SDS011;1913;50.660;7.834;2023-05-07T07:52:06;3.70;;;2.97;;
3795;SDS011;1913;50.660;7.834;2023-05-07T07:54:32;3.30;;;2.70;;
3795;SDS011;1913;50.660;7.834;2023-05-07T07:56:57;5.17;;;2.90;;
3795;SDS011;1913;50.660;7.834;2023-05-07T07:59:23;6.50;;;3.07;;
3795;SDS011;1913;50.660;7.834;2023-05-07T08:01:49;6.83;;;2.77;;
3795;SDS011;1913;50.660;7.834;2023-05-07T08:04:15;5.90;;;2.80;;
3795;SDS011;1913;50.660;7.834;2023-05-07T08:06:44;4.63;;;2.90;;
3795;SDS011;1913;50.660;7.834;2023-05-07T08:09:09;2.80;;;2.57;;
3795;SDS011;1913;50.660;7.834;2023-05-07T08:11:34;2.83;;;2.50;;
3795;SDS011;1913;50.660;7.834;2023-05-07T08:14:00;3.00;;;2.80;;
3795;SDS011;1913;50.660;7.834;2023-05-07T08:16:25;4.17;;;3.00;;
3795;SDS011;1913;50.660;7.834;2023-05-07T08:18:51;3.10;;;2.80;;
3795;SDS011;1913;50.660;7.834;2023-05-07T08:21:16;5.03;;;2.80;;
3795;SDS011;1913;50.660;7.834;2023-05-07T08:23:41;4.33;;;2.47;;
3795;SDS011;1913;50.660;7.834;2023-05-07T08:26:07;4.47;;;2.80;;
3795;SDS011;1913;50.660;7.834;2023-05-07T08:28:34;6.70;;;2.40;;
3795;SDS011;1913;50.660;7.834;2023-05-07T08:31:00;4.53;;;2.80;;
3795;SDS011;1913;50.660;7.834;2023-05-07T08:33:26;3.10;;;2.53;;
3795;SDS011;1913;50.660;7.834;2023-05-07T08:35:51;3.13;;;2.53;;
3795;SDS011;1913;50.660;7.834;2023-05-07T08:38:17;2.90;;;2.60;;
3795;SDS011;1913;50.660;7.834;2023-05-07T08:40:42;4.93;;;2.50;;
3795;SDS011;1913;50.660;7.834;2023-05-07T08:43:07;8.80;;;3.00;;
3795;SDS011;1913;50.660;7.834;2023-05-07T08:45:34;3.27;;;2.40;;
3795;SDS011;1913;50.660;7.834;2023-05-07T08:48:02;3.30;;;2.50;;
3795;SDS011;1913;50.660;7.834;2023-05-07T08:50:30;8.77;;;2.40;;
3795;SDS011;1913;50.660;7.834;2023-05-07T08:52:56;3.07;;;2.37;;
3795;SDS011;1913;50.660;7.834;2023-05-07T08:55:22;4.90;;;2.30;;
3795;SDS011;1913;50.660;7.834;2023-05-07T08:57:48;3.73;;;2.27;;
3795;SDS011;1913;50.660;7.834;2023-05-07T09:00:15;3.67;;;2.60;;
3795;SDS011;1913;50.660;7.834;2023-05-07T09:02:40;3.13;;;2.23;;
3795;SDS011;1913;50.660;7.834;2023-05-07T09:05:06;2.43;;;2.23;;
3795;SDS011;1913;50.660;7.834;2023-05-07T09:07:32;2.53;;;2.17;;
3795;SDS011;1913;50.660;7.834;2023-05-07T09:09:57;3.43;;;2.37;;
3795;SDS011;1913;50.660;7.834;2023-05-07T09:12:22;3.47;;;2.10;;
3795;SDS011;1913;50.660;7.834;2023-05-07T09:14:48;3.87;;;2.17;;
3795;SDS011;1913;50.660;7.834;2023-05-07T09:17:17;3.97;;;2.43;;
3795;SDS011;1913;50.660;7.834;2023-05-07T09:19:46;4.53;;;2.10;;
3795;SDS011;1913;50.660;7.834;2023-05-07T09:22:11;2.77;;;2.50;;
3795;SDS011;1913;50.660;7.834;2023-05-07T09:24:37;3.73;;;2.27;;
3795;SDS011;1913;50.660;7.834;2023-05-07T09:27:06;3.60;;;2.10;;
3795;SDS011;1913;50.660;7.834;2023-05-07T09:29:33;2.53;;;2.10;;
3795;SDS011;1913;50.660;7.834;2023-05-07T09:32:03;3.80;;;2.00;;
3795;SDS011;1913;50.660;7.834;2023-05-07T09:34:30;3.23;;;2.20;;
3795;SDS011;1913;50.660;7.834;2023-05-07T09:37:03;4.20;;;2.07;;
3795;SDS011;1913;50.660;7.834;2023-05-07T09:39:45;5.97;;;2.20;;
3795;SDS011;1913;50.660;7.834;2023-05-07T09:42:12;4.90;;;2.17;;
3795;SDS011;1913;50.660;7.834;2023-05-07T09:44:40;3.30;;;2.27;;
3795;SDS011;1913;50.660;7.834;2023-05-07T09:47:06;4.60;;;2.20;;
3795;SDS011;1913;50.660;7.834;2023-05-07T09:49:36;6.90;;;2.10;;
3795;SDS011;1913;50.660;7.834;2023-05-07T09:52:03;4.50;;;1.90;;
3795;SDS011;1913;50.660;7.834;2023-05-07T09:54:32;3.73;;;2.10;;
3795;SDS011;1913;50.660;7.834;2023-05-07T09:56:58;2.53;;;2.10;;
3795;SDS011;1913;50.660;7.834;2023-05-07T09:59:27;5.97;;;2.60;;
3795;SDS011;1913;50.660;7.834;2023-05-07T10:01:53;2.50;;;2.13;;
3795;SDS011;1913;50.660;7.834;2023-05-07T10:04:23;4.33;;;2.10;;
3795;SDS011;1913;50.660;7.834;2023-05-07T10:06:49;3.43;;;2.10;;
3795;SDS011;1913;50.660;7.834;2023-05-07T10:09:15;2.40;;;1.83;;
3795;SDS011;1913;50.660;7.834;2023-05-07T10:11:41;2.40;;;1.90;;
3795;SDS011;1913;50.660;7.834;2023-05-07T10:14:08;4.90;;;2.03;;
3795;SDS011;1913;50.660;7.834;2023-05-07T10:16:35;2.33;;;1.90;;
3795;SDS011;1913;50.660;7.834;2023-05-07T10:19:05;3.83;;;2.00;;
3795;SDS011;1913;50.660;7.834;2023-05-07T10:21:39;4.37;;;2.40;;
3795;SDS011;1913;50.660;7.834;2023-05-07T10:24:10;3.40;;;1.80;;
3795;SDS011;1913;50.660;7.834;2023-05-07T10:26:56;2.77;;;2.20;;
3795;SDS011;1913;50.660;7.834;2023-05-07T10:29:36;1.70;;;1.60;;
3795;SDS011;1913;50.660;7.834;2023-05-07T10:32:14;2.90;;;2.33;;
3795;SDS011;1913;50.660;7.834;2023-05-07T10:34:53;4.40;;;2.33;;
3795;SDS011;1913;50.660;7.834;2023-05-07T10:37:21;5.40;;;2.30;;
3795;SDS011;1913;50.660;7.834;2023-05-07T10:39:48;2.73;;;2.10;;
3795;SDS011;1913;50.660;7.834;2023-05-07T10:42:14;5.30;;;2.10;;
3795;SDS011;1913;50.660;7.834;2023-05-07T10:44:40;5.23;;;2.10;;
3795;SDS011;1913;50.660;7.834;2023-05-07T10:47:09;3.20;;;1.90;;
3795;SDS011;1913;50.660;7.834;2023-05-07T10:52:18;3.97;;;1.90;;
3795;SDS011;1913;50.660;7.834;2023-05-07T10:54:45;3.80;;;1.70;;
3795;SDS011;1913;50.660;7.834;2023-05-07T10:59:59;2.90;;;2.27;;
3795;SDS011;1913;50.660;7.834;2023-05-07T11:03:04;7.77;;;3.00;;
3795;SDS011;1913;50.660;7.834;2023-05-07T11:05:25;2.00;;;1.90;;
3795;SDS011;1913;50.660;7.834;2023-05-07T11:07:55;3.63;;;2.27;;
3795;SDS011;1913;50.660;7.834;2023-05-07T11:10:21;4.47;;;2.97;;
3795;SDS011;1913;50.660;7.834;2023-05-07T11:12:48;5.10;;;2.40;;
3795;SDS011;1913;50.660;7.834;2023-05-07T11:15:32;5.10;;;2.10;;
3795;SDS011;1913;50.660;7.834;2023-05-07T11:18:00;2.47;;;2.03;;
3795;SDS011;1913;50.660;7.834;2023-05-07T11:20:45;5.27;;;2.37;;
3795;SDS011;1913;50.660;7.834;2023-05-07T11:23:54;3.10;;;2.37;;
3795;SDS011;1913;50.660;7.834;2023-05-07T11:26:13;4.77;;;2.27;;
3795;SDS011;1913;50.660;7.834;2023-05-07T11:28:42;2.67;;;2.30;;
3795;SDS011;1913;50.660;7.834;2023-05-07T11:31:09;4.20;;;2.50;;
3795;SDS011;1913;50.660;7.834;2023-05-07T11:33:36;2.70;;;2.33;;
3795;SDS011;1913;50.660;7.834;2023-05-07T11:36:03;2.30;;;2.10;;
3795;SDS011;1913;50.660;7.834;2023-05-07T11:38:29;5.33;;;2.40;;
3795;SDS011;1913;50.660;7.834;2023-05-07T11:40:57;3.57;;;2.07;;
3795;SDS011;1913;50.660;7.834;2023-05-07T11:43:25;3.27;;;2.10;;
3795;SDS011;1913;50.660;7.834;2023-05-07T11:45:51;5.83;;;2.40;;
3795;SDS011;1913;50.660;7.834;2023-05-07T11:48:17;4.60;;;2.53;;
3795;SDS011;1913;50.660;7.834;2023-05-07T11:53:27;4.77;;;2.70;;
3795;SDS011;1913;50.660;7.834;2023-05-07T11:55:59;7.30;;;2.43;;
3795;SDS011;1913;50.660;7.834;2023-05-07T11:58:25;3.63;;;2.70;;
3795;SDS011;1913;50.660;7.834;2023-05-07T12:00:51;3.90;;;3.07;;
3795;SDS011;1913;50.660;7.834;2023-05-07T12:03:18;3.63;;;2.87;;
3795;SDS011;1913;50.660;7.834;2023-05-07T12:05:44;3.70;;;2.23;;
3795;SDS011;1913;50.660;7.834;2023-05-07T12:08:14;3.23;;;2.23;;
3795;SDS011;1913;50.660;7.834;2023-05-07T12:10:41;3.97;;;2.73;;
3795;SDS011;1913;50.660;7.834;2023-05-07T12:13:41;3.53;;;2.67;;
3795;SDS011;1913;50.660;7.834;2023-05-07T12:15:59;3.57;;;2.90;;
3795;SDS011;1913;50.660;7.834;2023-05-07T12:18:25;3.80;;;3.07;;
3795;SDS011;1913;50.660;7.834;2023-05-07T12:20:50;3.00;;;2.77;;
3795;SDS011;1913;50.660;7.834;2023-05-07T12:23:16;3.30;;;2.30;;
3795;SDS011;1913;50.660;7.834;2023-05-07T12:25:43;3.40;;;3.10;;
3795;SDS011;1913;50.660;7.834;2023-05-07T12:28:15;6.80;;;3.27;;
3795;SDS011;1913;50.660;7.834;2023-05-07T12:30:42;6.63;;;3.17;;
3795;SDS011;1913;50.660;7.834;2023-05-07T12:33:08;4.50;;;3.50;;
3795;SDS011;1913;50.660;7.834;2023-05-07T12:35:41;4.73;;;3.60;;
3795;SDS011;1913;50.660;7.834;2023-05-07T12:38:07;5.33;;;3.93;;
3795;SDS011;1913;50.660;7.834;2023-05-07T12:40:35;8.63;;;4.00;;
3795;SDS011;1913;50.660;7.834;2023-05-07T12:43:24;4.30;;;3.60;;
3795;SDS011;1913;50.660;7.834;2023-05-07T12:45:54;5.77;;;3.70;;
3795;SDS011;1913;50.660;7.834;2023-05-07T12:48:22;4.03;;;3.27;;
3795;SDS011;1913;50.660;7.834;2023-05-07T12:50:52;3.57;;;3.27;;
3795;SDS011;1913;50.660;7.834;2023-05-07T12:53:22;5.40;;;3.53;;
3795;SDS011;1913;50.660;7.834;2023-05-07T12:55:50;5.13;;;3.80;;
3795;SDS011;1913;50.660;7.834;2023-05-07T12:58:18;3.97;;;3.57;;
3795;SDS011;1913;50.660;7.834;2023-05-07T13:00:47;5.50;;;3.90;;
3795;SDS011;1913;50.660;7.834;2023-05-07T13:03:20;6.03;;;3.80;;
3795;SDS011;1913;50.660;7.834;2023-05-07T13:05:48;7.87;;;4.57;;
3795;SDS011;1913;50.660;7.834;2023-05-07T13:08:23;5.20;;;4.20;;
3795;SDS011;1913;50.660;7.834;2023-05-07T13:10:58;4.90;;;3.90;;
3795;SDS011;1913;50.660;7.834;2023-05-07T13:13:30;5.00;;;3.60;;
3795;SDS011;1913;50.660;7.834;2023-05-07T13:15:56;8.30;;;4.13;;
3795;SDS011;1913;50.660;7.834;2023-05-07T13:18:21;4.90;;;4.20;;
3795;SDS011;1913;50.660;7.834;2023-05-07T13:20:47;4.40;;;3.73;;
3795;SDS011;1913;50.660;7.834;2023-05-07T13:23:12;4.53;;;3.73;;
3795;SDS011;1913;50.660;7.834;2023-05-07T13:25:37;2.73;;;2.50;;
3795;SDS011;1913;50.660;7.834;2023-05-07T13:28:03;5.50;;;2.87;;
3795;SDS011;1913;50.660;7.834;2023-05-07T13:30:29;3.70;;;2.47;;
3795;SDS011;1913;50.660;7.834;2023-05-07T13:32:55;3.80;;;2.33;;
3795;SDS011;1913;50.660;7.834;2023-05-07T13:35:21;2.63;;;2.40;;
3795;SDS011;1913;50.660;7.834;2023-05-07T13:37:46;2.87;;;2.37;;
3795;SDS011;1913;50.660;7.834;2023-05-07T13:40:14;3.63;;;2.43;;
3795;SDS011;1913;50.660;7.834;2023-05-07T13:42:40;4.30;;;2.43;;
3795;SDS011;1913;50.660;7.834;2023-05-07T13:45:06;2.10;;;1.90;;
3795;SDS011;1913;50.660;7.834;2023-05-07T13:47:32;3.10;;;2.00;;
3795;SDS011;1913;50.660;7.834;2023-05-07T13:49:57;2.03;;;1.93;;
3795;SDS011;1913;50.660;7.834;2023-05-07T13:52:23;5.40;;;2.00;;
3795;SDS011;1913;50.660;7.834;2023-05-07T13:54:48;3.60;;;2.60;;
3795;SDS011;1913;50.660;7.834;2023-05-07T13:57:13;3.70;;;2.40;;
3795;SDS011;1913;50.660;7.834;2023-05-07T13:59:40;3.03;;;2.13;;
3795;SDS011;1913;50.660;7.834;2023-05-07T14:02:05;3.83;;;2.10;;
3795;SDS011;1913;50.660;7.834;2023-05-07T14:04:31;2.87;;;2.00;;
3795;SDS011;1913;50.660;7.834;2023-05-07T14:06:56;3.60;;;2.40;;
3795;SDS011;1913;50.660;7.834;2023-05-07T14:09:22;3.67;;;2.10;;
3795;SDS011;1913;50.660;7.834;2023-05-07T14:11:47;3.03;;;2.43;;
3795;SDS011;1913;50.660;7.834;2023-05-07T14:14:16;3.70;;;2.47;;
3795;SDS011;1913;50.660;7.834;2023-05-07T14:16:42;6.53;;;2.50;;
3795;SDS011;1913;50.660;7.834;2023-05-07T14:19:07;5.33;;;2.53;;
3795;SDS011;1913;50.660;7.834;2023-05-07T14:21:33;3.97;;;2.70;;
3795;SDS011;1913;50.660;7.834;2023-05-07T14:23:58;3.17;;;2.60;;
3795;SDS011;1913;50.660;7.834;2023-05-07T14:26:25;6.27;;;2.47;;
3795;SDS011;1913;50.660;7.834;2023-05-07T14:28:52;4.50;;;2.70;;
3795;SDS011;1913;50.660;7.834;2023-05-07T14:31:20;2.57;;;2.37;;
3795;SDS011;1913;50.660;7.834;2023-05-07T14:33:46;3.37;;;2.50;;
3795;SDS011;1913;50.660;7.834;2023-05-07T14:36:11;2.33;;;2.13;;
3795;SDS011;1913;50.660;7.834;2023-05-07T14:38:37;2.90;;;2.30;;
3795;SDS011;1913;50.660;7.834;2023-05-07T14:41:02;2.53;;;2.33;;
3795;SDS011;1913;50.660;7.834;2023-05-07T14:43:27;2.63;;;2.43;;
3795;SDS011;1913;50.660;7.834;2023-05-07T14:45:53;3.83;;;2.50;;
3795;SDS011;1913;50.660;7.834;2023-05-07T14:48:18;7.27;;;3.00;;
3795;SDS011;1913;50.660;7.834;2023-05-07T14:50:46;3.17;;;2.87;;
3795;SDS011;1913;50.660;7.834;2023-05-07T14:53:12;5.00;;;2.80;;
3795;SDS011;1913;50.660;7.834;2023-05-07T14:55:37;4.10;;;2.80;;
3795;SDS011;1913;50.660;7.834;2023-05-07T14:58:03;3.00;;;2.67;;
3795;SDS011;1913;50.660;7.834;2023-05-07T15:00:28;3.10;;;2.70;;
3795;SDS011;1913;50.660;7.834;2023-05-07T15:02:54;3.03;;;2.73;;
3795;SDS011;1913;50.660;7.834;2023-05-07T15:05:29;5.40;;;2.93;;
3795;SDS011;1913;50.660;7.834;2023-05-07T15:07:54;3.70;;;3.30;;
3795;SDS011;1913;50.660;7.834;2023-05-07T15:10:20;3.57;;;3.10;;
3795;SDS011;1913;50.660;7.834;2023-05-07T15:12:46;4.50;;;3.20;;
3795;SDS011;1913;50.660;7.834;2023-05-07T15:15:11;3.80;;;2.97;;
3795;SDS011;1913;50.660;7.834;2023-05-07T15:17:37;5.50;;;3.20;;
3795;SDS011;1913;50.660;7.834;2023-05-07T15:20:02;8.03;;;3.33;;
3795;SDS011;1913;50.660;7.834;2023-05-07T15:22:30;6.27;;;3.27;;